This is the latest recevied weather packets stored in our database for station/object KD0MAC. If no packets are shown the sender has not sent any weather packets the latest 1 day(s).
| Time | Temp. | Humidity | Pressure | Rain* | Wind** | Luminosity | Snow |
|---|---|---|---|---|---|---|---|
| 1778106994 | 12.78° C | 56% | 1017.9 hPa | 0 mm | - | 142 W/m² | - |
| 1778106394 | 12.78° C | 60% | 1017.9 hPa | 0 mm | - | 150 W/m² | - |
| 1778105794 | 12.22° C | 66% | 1018.3 hPa | 0 mm | - | 183 W/m² | - |
| 1778105196 | 12.22° C | 62% | 1018.3 hPa | 0 mm | - | 124 W/m² | - |
| 1778103996 | 12.22° C | 57% | 1018.3 hPa | 0 mm | - | 184 W/m² | - |
| 1778103094 | 12.22° C | 59% | 1018.6 hPa | 0 mm | - | 170 W/m² | - |
| 1778102494 | 12.22° C | 61% | 1018.6 hPa | 0 mm | - | 193 W/m² | - |
| 1778102195 | 12.22° C | 61% | 1018.6 hPa | 0 mm | - | 182 W/m² | - |
| 1778100694 | 11.67° C | 62% | 1019 hPa | 0 mm | - | 131 W/m² | - |
| 1778099807 | 12.78° C | 59% | 1019 hPa | 0 mm | - | 177 W/m² | - |
| 1778097994 | 13.33° C | 60% | 1019 hPa | 0 mm | - | 201 W/m² | - |
| 1778097694 | 12.78° C | 59% | 1019 hPa | 0 mm | - | 353 W/m² | - |
| 1778096794 | 12.78° C | 62% | 1019.3 hPa | 0 mm | - | 327 W/m² | - |
| 1778096196 | 12.22° C | 62% | 1019.3 hPa | 0 mm | - | 380 W/m² | - |
| 1778095594 | 11.11° C | 66% | 1019.3 hPa | 0 mm | - | 356 W/m² | - |
| 1778095294 | 11.11° C | 68% | 1019.3 hPa | 0 mm | - | 359 W/m² | - |
| 1778093508 | 10.56° C | 73% | 1019.6 hPa | 0 mm | - | 189 W/m² | - |
| 1778092294 | 9.44° C | 76% | 1020 hPa | 0 mm | - | 201 W/m² | - |
| 1778091094 | 8.89° C | 79% | 1020 hPa | 0 mm | - | 132 W/m² | - |
| 1778090495 | 8.89° C | 80% | 1020 hPa | 0 mm | - | 198 W/m² | - |
| 1778090194 | 8.33° C | 82% | 1020 hPa | 0 mm | - | 123 W/m² | - |
| 1778089894 | 8.33° C | 81% | 1020 hPa | 0 mm | - | 104 W/m² | - |
| 1778089296 | 8.33° C | 79% | 1020 hPa | 0 mm | - | 82 W/m² | - |
| 1778088696 | 9.44° C | 76% | 1020 hPa | 0 mm | - | 75 W/m² | - |
| 1778086294 | 9.44° C | 77% | 1019.6 hPa | 0 mm | - | 283 W/m² | - |
* Rain latest hour (hover to see other rain measurements)
** Current wind speed in m/s (hover to see current wind gust speed)